sensor_id;sensor_type;location;lat;lon;timestamp;P1;durP1;ratioP1;P2;durP2;ratioP2
70420;SDS011;57848;51.938;15.520;2024-03-02T00:00:15;32.00;;;15.50;;
70420;SDS011;57848;51.938;15.520;2024-03-02T00:02:44;28.63;;;15.93;;
70420;SDS011;57848;51.938;15.520;2024-03-02T00:05:11;31.40;;;15.77;;
70420;SDS011;57848;51.938;15.520;2024-03-02T00:07:41;26.75;;;15.40;;
70420;SDS011;57848;51.938;15.520;2024-03-02T00:10:08;24.98;;;14.60;;
70420;SDS011;57848;51.938;15.520;2024-03-02T00:12:38;29.13;;;14.65;;
70420;SDS011;57848;51.938;15.520;2024-03-02T00:15:05;28.67;;;15.00;;
70420;SDS011;57848;51.938;15.520;2024-03-02T00:17:55;31.03;;;16.20;;
70420;SDS011;57848;51.938;15.520;2024-03-02T00:20:24;29.27;;;16.08;;
70420;SDS011;57848;51.938;15.520;2024-03-02T00:22:56;30.80;;;15.57;;
70420;SDS011;57848;51.938;15.520;2024-03-02T00:25:40;31.38;;;15.52;;
70420;SDS011;57848;51.938;15.520;2024-03-02T00:28:27;31.75;;;14.23;;
70420;SDS011;57848;51.938;15.520;2024-03-02T00:33:28;26.60;;;14.40;;
70420;SDS011;57848;51.938;15.520;2024-03-02T00:35:56;28.42;;;15.32;;
70420;SDS011;57848;51.938;15.520;2024-03-02T00:38:22;31.15;;;15.85;;
70420;SDS011;57848;51.938;15.520;2024-03-02T00:40:47;28.87;;;15.80;;
70420;SDS011;57848;51.938;15.520;2024-03-02T00:43:20;33.00;;;15.40;;
70420;SDS011;57848;51.938;15.520;2024-03-02T00:46:06;30.08;;;15.80;;
70420;SDS011;57848;51.938;15.520;2024-03-02T00:48:32;28.08;;;14.68;;
70420;SDS011;57848;51.938;15.520;2024-03-02T00:51:01;28.00;;;16.20;;
70420;SDS011;57848;51.938;15.520;2024-03-02T00:53:28;32.37;;;15.50;;
70420;SDS011;57848;51.938;15.520;2024-03-02T00:55:54;28.13;;;15.65;;
70420;SDS011;57848;51.938;15.520;2024-03-02T00:58:20;29.25;;;14.85;;
70420;SDS011;57848;51.938;15.520;2024-03-02T01:00:46;29.27;;;15.23;;
70420;SDS011;57848;51.938;15.520;2024-03-02T01:03:11;30.90;;;14.82;;
70420;SDS011;57848;51.938;15.520;2024-03-02T01:05:40;30.87;;;15.27;;
70420;SDS011;57848;51.938;15.520;2024-03-02T01:08:07;33.40;;;15.70;;
70420;SDS011;57848;51.938;15.520;2024-03-02T01:10:32;30.50;;;17.43;;
70420;SDS011;57848;51.938;15.520;2024-03-02T01:12:58;29.30;;;14.63;;
70420;SDS011;57848;51.938;15.520;2024-03-02T01:15:23;30.10;;;15.63;;
70420;SDS011;57848;51.938;15.520;2024-03-02T01:17:49;31.97;;;16.50;;
70420;SDS011;57848;51.938;15.520;2024-03-02T01:20:14;32.53;;;15.97;;
70420;SDS011;57848;51.938;15.520;2024-03-02T01:22:40;28.95;;;16.17;;
70420;SDS011;57848;51.938;15.520;2024-03-02T01:25:05;32.83;;;16.43;;
70420;SDS011;57848;51.938;15.520;2024-03-02T01:27:31;31.53;;;17.23;;
70420;SDS011;57848;51.938;15.520;2024-03-02T01:29:56;31.20;;;16.97;;
70420;SDS011;57848;51.938;15.520;2024-03-02T01:32:21;30.40;;;15.90;;
70420;SDS011;57848;51.938;15.520;2024-03-02T01:34:47;34.43;;;17.97;;
70420;SDS011;57848;51.938;15.520;2024-03-02T01:37:12;34.13;;;17.07;;
70420;SDS011;57848;51.938;15.520;2024-03-02T01:39:38;35.08;;;17.83;;
70420;SDS011;57848;51.938;15.520;2024-03-02T01:42:04;33.50;;;18.47;;
70420;SDS011;57848;51.938;15.520;2024-03-02T01:44:29;40.47;;;20.10;;
70420;SDS011;57848;51.938;15.520;2024-03-02T01:46:56;36.08;;;19.60;;
70420;SDS011;57848;51.938;15.520;2024-03-02T01:49:21;36.93;;;18.93;;
70420;SDS011;57848;51.938;15.520;2024-03-02T01:51:47;38.53;;;19.47;;
70420;SDS011;57848;51.938;15.520;2024-03-02T01:54:13;39.72;;;19.55;;
70420;SDS011;57848;51.938;15.520;2024-03-02T01:56:38;39.07;;;20.93;;
70420;SDS011;57848;51.938;15.520;2024-03-02T01:59:03;42.90;;;22.40;;
70420;SDS011;57848;51.938;15.520;2024-03-02T02:01:29;45.17;;;22.03;;
70420;SDS011;57848;51.938;15.520;2024-03-02T02:03:54;39.63;;;20.90;;
70420;SDS011;57848;51.938;15.520;2024-03-02T02:06:20;41.83;;;23.30;;
70420;SDS011;57848;51.938;15.520;2024-03-02T02:08:46;41.17;;;21.80;;
70420;SDS011;57848;51.938;15.520;2024-03-02T02:11:14;47.60;;;24.83;;
70420;SDS011;57848;51.938;15.520;2024-03-02T02:13:40;44.60;;;23.23;;
70420;SDS011;57848;51.938;15.520;2024-03-02T02:16:09;45.00;;;24.73;;
70420;SDS011;57848;51.938;15.520;2024-03-02T02:18:34;49.10;;;25.52;;
70420;SDS011;57848;51.938;15.520;2024-03-02T02:21:01;47.60;;;25.58;;
70420;SDS011;57848;51.938;15.520;2024-03-02T02:23:27;48.83;;;24.45;;
70420;SDS011;57848;51.938;15.520;2024-03-02T02:25:52;47.67;;;25.33;;
70420;SDS011;57848;51.938;15.520;2024-03-02T02:28:17;50.33;;;24.63;;
70420;SDS011;57848;51.938;15.520;2024-03-02T02:30:43;56.07;;;27.00;;
70420;SDS011;57848;51.938;15.520;2024-03-02T02:33:08;56.17;;;26.88;;
70420;SDS011;57848;51.938;15.520;2024-03-02T02:35:34;54.50;;;27.90;;
70420;SDS011;57848;51.938;15.520;2024-03-02T02:37:59;51.00;;;26.90;;
70420;SDS011;57848;51.938;15.520;2024-03-02T02:40:25;57.65;;;28.63;;
70420;SDS011;57848;51.938;15.520;2024-03-02T02:42:51;58.20;;;29.75;;
70420;SDS011;57848;51.938;15.520;2024-03-02T02:45:17;56.90;;;29.73;;
70420;SDS011;57848;51.938;15.520;2024-03-02T02:47:43;53.07;;;28.87;;
70420;SDS011;57848;51.938;15.520;2024-03-02T02:50:10;58.30;;;30.27;;
70420;SDS011;57848;51.938;15.520;2024-03-02T02:52:37;58.58;;;29.55;;
70420;SDS011;57848;51.938;15.520;2024-03-02T02:55:05;61.08;;;30.15;;
70420;SDS011;57848;51.938;15.520;2024-03-02T02:57:32;61.80;;;31.08;;
70420;SDS011;57848;51.938;15.520;2024-03-02T03:00:04;60.20;;;30.15;;
70420;SDS011;57848;51.938;15.520;2024-03-02T03:02:38;59.17;;;30.17;;
70420;SDS011;57848;51.938;15.520;2024-03-02T03:05:04;63.47;;;32.45;;
70420;SDS011;57848;51.938;15.520;2024-03-02T03:07:33;61.00;;;31.40;;
70420;SDS011;57848;51.938;15.520;2024-03-02T03:10:02;66.55;;;31.10;;
70420;SDS011;57848;51.938;15.520;2024-03-02T03:12:29;60.03;;;31.00;;
70420;SDS011;57848;51.938;15.520;2024-03-02T03:14:56;58.70;;;31.27;;
70420;SDS011;57848;51.938;15.520;2024-03-02T03:17:22;68.75;;;32.70;;
70420;SDS011;57848;51.938;15.520;2024-03-02T03:19:48;64.07;;;31.33;;
70420;SDS011;57848;51.938;15.520;2024-03-02T03:22:14;65.40;;;34.28;;
70420;SDS011;57848;51.938;15.520;2024-03-02T03:24:39;66.40;;;33.47;;
70420;SDS011;57848;51.938;15.520;2024-03-02T03:27:05;65.47;;;33.50;;
70420;SDS011;57848;51.938;15.520;2024-03-02T03:29:30;62.13;;;32.20;;
70420;SDS011;57848;51.938;15.520;2024-03-02T03:31:55;61.23;;;33.00;;
70420;SDS011;57848;51.938;15.520;2024-03-02T03:34:21;70.13;;;33.77;;
70420;SDS011;57848;51.938;15.520;2024-03-02T03:36:46;66.17;;;33.37;;
70420;SDS011;57848;51.938;15.520;2024-03-02T03:39:12;64.80;;;33.50;;
70420;SDS011;57848;51.938;15.520;2024-03-02T03:41:37;69.00;;;32.87;;
70420;SDS011;57848;51.938;15.520;2024-03-02T03:44:02;67.43;;;32.87;;
70420;SDS011;57848;51.938;15.520;2024-03-02T03:46:28;68.10;;;34.17;;
70420;SDS011;57848;51.938;15.520;2024-03-02T03:48:54;65.22;;;33.95;;
70420;SDS011;57848;51.938;15.520;2024-03-02T03:51:21;73.65;;;35.33;;
70420;SDS011;57848;51.938;15.520;2024-03-02T03:53:47;66.63;;;34.47;;
70420;SDS011;57848;51.938;15.520;2024-03-02T03:56:13;71.78;;;34.13;;
70420;SDS011;57848;51.938;15.520;2024-03-02T03:58:39;67.73;;;34.03;;
70420;SDS011;57848;51.938;15.520;2024-03-02T04:01:04;71.13;;;33.45;;
70420;SDS011;57848;51.938;15.520;2024-03-02T04:03:29;67.57;;;31.90;;
70420;SDS011;57848;51.938;15.520;2024-03-02T04:05:55;64.30;;;32.70;;
70420;SDS011;57848;51.938;15.520;2024-03-02T04:08:21;69.07;;;33.88;;
70420;SDS011;57848;51.938;15.520;2024-03-02T04:10:46;64.07;;;34.00;;
70420;SDS011;57848;51.938;15.520;2024-03-02T04:13:12;67.83;;;31.70;;
70420;SDS011;57848;51.938;15.520;2024-03-02T04:15:37;70.40;;;32.45;;
70420;SDS011;57848;51.938;15.520;2024-03-02T04:18:03;69.87;;;32.50;;
70420;SDS011;57848;51.938;15.520;2024-03-02T04:20:28;68.30;;;33.93;;
70420;SDS011;57848;51.938;15.520;2024-03-02T04:22:55;63.15;;;32.50;;
70420;SDS011;57848;51.938;15.520;2024-03-02T04:25:20;66.07;;;32.65;;
70420;SDS011;57848;51.938;15.520;2024-03-02T04:27:46;65.03;;;31.33;;
70420;SDS011;57848;51.938;15.520;2024-03-02T04:30:12;68.30;;;32.65;;
70420;SDS011;57848;51.938;15.520;2024-03-02T04:32:37;65.40;;;33.67;;
70420;SDS011;57848;51.938;15.520;2024-03-02T04:35:04;66.82;;;32.45;;
70420;SDS011;57848;51.938;15.520;2024-03-02T04:37:31;66.18;;;32.53;;
70420;SDS011;57848;51.938;15.520;2024-03-02T04:39:58;68.10;;;33.37;;
70420;SDS011;57848;51.938;15.520;2024-03-02T04:42:23;72.65;;;34.33;;
70420;SDS011;57848;51.938;15.520;2024-03-02T04:44:49;63.93;;;32.73;;
70420;SDS011;57848;51.938;15.520;2024-03-02T04:47:15;70.65;;;34.67;;
70420;SDS011;57848;51.938;15.520;2024-03-02T04:49:40;73.83;;;36.67;;
70420;SDS011;57848;51.938;15.520;2024-03-02T04:52:06;70.07;;;35.23;;
70420;SDS011;57848;51.938;15.520;2024-03-02T04:54:31;74.27;;;35.53;;
70420;SDS011;57848;51.938;15.520;2024-03-02T04:56:56;73.93;;;35.53;;
70420;SDS011;57848;51.938;15.520;2024-03-02T04:59:22;70.00;;;34.65;;
70420;SDS011;57848;51.938;15.520;2024-03-02T05:01:47;68.60;;;35.27;;
70420;SDS011;57848;51.938;15.520;2024-03-02T05:04:13;72.47;;;34.37;;
70420;SDS011;57848;51.938;15.520;2024-03-02T05:06:39;70.67;;;35.10;;
70420;SDS011;57848;51.938;15.520;2024-03-02T05:09:05;71.32;;;35.47;;
70420;SDS011;57848;51.938;15.520;2024-03-02T05:11:31;71.68;;;36.38;;
70420;SDS011;57848;51.938;15.520;2024-03-02T05:14:03;73.72;;;34.80;;
70420;SDS011;57848;51.938;15.520;2024-03-02T05:16:29;70.70;;;35.13;;
70420;SDS011;57848;51.938;15.520;2024-03-02T05:18:54;68.57;;;33.87;;
70420;SDS011;57848;51.938;15.520;2024-03-02T05:21:20;69.25;;;35.30;;
70420;SDS011;57848;51.938;15.520;2024-03-02T05:23:46;75.50;;;33.43;;
70420;SDS011;57848;51.938;15.520;2024-03-02T05:26:11;77.50;;;34.43;;
70420;SDS011;57848;51.938;15.520;2024-03-02T05:28:38;69.88;;;34.00;;
70420;SDS011;57848;51.938;15.520;2024-03-02T05:31:04;76.10;;;35.70;;
70420;SDS011;57848;51.938;15.520;2024-03-02T05:33:29;66.35;;;34.15;;
70420;SDS011;57848;51.938;15.520;2024-03-02T05:35:56;70.97;;;33.43;;
70420;SDS011;57848;51.938;15.520;2024-03-02T05:38:22;68.55;;;33.00;;
70420;SDS011;57848;51.938;15.520;2024-03-02T05:40:47;67.30;;;33.53;;
70420;SDS011;57848;51.938;15.520;2024-03-02T05:43:13;68.45;;;32.38;;
70420;SDS011;57848;51.938;15.520;2024-03-02T05:45:39;62.27;;;31.80;;
70420;SDS011;57848;51.938;15.520;2024-03-02T05:48:05;69.50;;;33.10;;
70420;SDS011;57848;51.938;15.520;2024-03-02T05:50:32;63.10;;;33.35;;
70420;SDS011;57848;51.938;15.520;2024-03-02T05:52:58;71.10;;;33.40;;
70420;SDS011;57848;51.938;15.520;2024-03-02T05:55:24;67.47;;;34.45;;
70420;SDS011;57848;51.938;15.520;2024-03-02T05:57:49;67.90;;;30.90;;
70420;SDS011;57848;51.938;15.520;2024-03-02T06:00:30;69.77;;;32.10;;
70420;SDS011;57848;51.938;15.520;2024-03-02T06:02:56;72.43;;;33.65;;
70420;SDS011;57848;51.938;15.520;2024-03-02T06:05:21;66.30;;;33.63;;
70420;SDS011;57848;51.938;15.520;2024-03-02T06:07:47;63.13;;;32.00;;
70420;SDS011;57848;51.938;15.520;2024-03-02T06:10:12;62.97;;;33.15;;
70420;SDS011;57848;51.938;15.520;2024-03-02T06:12:38;65.60;;;31.13;;
70420;SDS011;57848;51.938;15.520;2024-03-02T06:15:03;66.97;;;34.53;;
70420;SDS011;57848;51.938;15.520;2024-03-02T06:17:29;68.45;;;31.88;;
70420;SDS011;57848;51.938;15.520;2024-03-02T06:19:54;57.77;;;30.30;;
70420;SDS011;57848;51.938;15.520;2024-03-02T06:22:20;67.03;;;32.53;;
70420;SDS011;57848;51.938;15.520;2024-03-02T06:24:46;63.50;;;32.80;;
70420;SDS011;57848;51.938;15.520;2024-03-02T06:27:11;63.43;;;31.60;;
70420;SDS011;57848;51.938;15.520;2024-03-02T06:29:37;63.42;;;31.63;;
70420;SDS011;57848;51.938;15.520;2024-03-02T06:32:02;67.10;;;31.30;;
70420;SDS011;57848;51.938;15.520;2024-03-02T06:34:28;59.97;;;30.43;;
70420;SDS011;57848;51.938;15.520;2024-03-02T06:36:53;59.77;;;30.27;;
70420;SDS011;57848;51.938;15.520;2024-03-02T06:39:18;61.28;;;32.63;;
70420;SDS011;57848;51.938;15.520;2024-03-02T06:41:44;62.13;;;31.40;;
70420;SDS011;57848;51.938;15.520;2024-03-02T06:44:12;69.70;;;33.78;;
70420;SDS011;57848;51.938;15.520;2024-03-02T06:46:37;67.30;;;32.30;;
70420;SDS011;57848;51.938;15.520;2024-03-02T06:49:03;65.13;;;31.87;;
70420;SDS011;57848;51.938;15.520;2024-03-02T06:51:29;65.83;;;32.30;;
70420;SDS011;57848;51.938;15.520;2024-03-02T06:53:54;61.42;;;30.65;;
70420;SDS011;57848;51.938;15.520;2024-03-02T06:56:20;68.13;;;33.37;;
70420;SDS011;57848;51.938;15.520;2024-03-02T06:58:46;63.47;;;31.55;;
70420;SDS011;57848;51.938;15.520;2024-03-02T07:01:12;61.13;;;31.37;;
70420;SDS011;57848;51.938;15.520;2024-03-02T07:03:37;62.13;;;32.17;;
70420;SDS011;57848;51.938;15.520;2024-03-02T07:06:04;63.50;;;32.05;;
70420;SDS011;57848;51.938;15.520;2024-03-02T07:08:30;68.45;;;33.05;;
70420;SDS011;57848;51.938;15.520;2024-03-02T07:10:56;68.90;;;32.07;;
70420;SDS011;57848;51.938;15.520;2024-03-02T07:13:22;68.95;;;32.20;;
70420;SDS011;57848;51.938;15.520;2024-03-02T07:15:47;63.87;;;30.97;;
70420;SDS011;57848;51.938;15.520;2024-03-02T07:18:29;68.72;;;35.03;;
70420;SDS011;57848;51.938;15.520;2024-03-02T07:20:55;67.18;;;33.55;;
70420;SDS011;57848;51.938;15.520;2024-03-02T07:23:23;63.95;;;32.28;;
70420;SDS011;57848;51.938;15.520;2024-03-02T07:25:52;67.80;;;33.07;;
70420;SDS011;57848;51.938;15.520;2024-03-02T07:28:21;66.80;;;32.63;;
70420;SDS011;57848;51.938;15.520;2024-03-02T07:30:59;67.43;;;33.70;;
70420;SDS011;57848;51.938;15.520;2024-03-02T07:33:29;70.38;;;34.40;;
70420;SDS011;57848;51.938;15.520;2024-03-02T07:35:55;68.18;;;33.15;;
70420;SDS011;57848;51.938;15.520;2024-03-02T07:38:21;70.17;;;34.93;;
70420;SDS011;57848;51.938;15.520;2024-03-02T07:40:48;69.90;;;35.00;;
70420;SDS011;57848;51.938;15.520;2024-03-02T07:43:17;69.03;;;33.97;;
70420;SDS011;57848;51.938;15.520;2024-03-02T07:45:44;65.00;;;32.42;;
70420;SDS011;57848;51.938;15.520;2024-03-02T07:48:09;77.57;;;34.17;;
70420;SDS011;57848;51.938;15.520;2024-03-02T07:50:35;64.25;;;34.33;;
70420;SDS011;57848;51.938;15.520;2024-03-02T07:53:02;70.70;;;35.75;;
70420;SDS011;57848;51.938;15.520;2024-03-02T07:55:28;70.43;;;33.30;;
70420;SDS011;57848;51.938;15.520;2024-03-02T07:57:54;68.05;;;34.22;;
70420;SDS011;57848;51.938;15.520;2024-03-02T08:00:20;69.60;;;35.25;;
70420;SDS011;57848;51.938;15.520;2024-03-02T08:02:46;75.73;;;35.17;;
70420;SDS011;57848;51.938;15.520;2024-03-02T08:05:11;68.83;;;34.77;;
70420;SDS011;57848;51.938;15.520;2024-03-02T08:07:37;74.85;;;37.72;;
70420;SDS011;57848;51.938;15.520;2024-03-02T08:10:02;69.47;;;33.40;;
70420;SDS011;57848;51.938;15.520;2024-03-02T08:12:28;72.73;;;35.67;;
70420;SDS011;57848;51.938;15.520;2024-03-02T08:14:53;68.90;;;34.83;;
70420;SDS011;57848;51.938;15.520;2024-03-02T08:17:19;69.07;;;35.33;;
70420;SDS011;57848;51.938;15.520;2024-03-02T08:19:44;71.27;;;34.97;;
70420;SDS011;57848;51.938;15.520;2024-03-02T08:22:09;68.00;;;33.97;;
70420;SDS011;57848;51.938;15.520;2024-03-02T08:24:35;67.85;;;34.35;;
70420;SDS011;57848;51.938;15.520;2024-03-02T08:27:01;75.03;;;35.17;;
70420;SDS011;57848;51.938;15.520;2024-03-02T08:29:26;73.47;;;36.75;;
70420;SDS011;57848;51.938;15.520;2024-03-02T08:31:52;68.47;;;35.07;;
70420;SDS011;57848;51.938;15.520;2024-03-02T08:34:18;65.67;;;34.90;;
70420;SDS011;57848;51.938;15.520;2024-03-02T08:36:44;68.70;;;35.70;;
70420;SDS011;57848;51.938;15.520;2024-03-02T08:39:09;71.88;;;35.70;;
70420;SDS011;57848;51.938;15.520;2024-03-02T08:41:41;68.07;;;33.60;;
70420;SDS011;57848;51.938;15.520;2024-03-02T08:44:08;69.78;;;35.15;;
70420;SDS011;57848;51.938;15.520;2024-03-02T08:46:34;63.17;;;32.97;;
70420;SDS011;57848;51.938;15.520;2024-03-02T08:48:59;69.63;;;33.27;;
70420;SDS011;57848;51.938;15.520;2024-03-02T08:51:25;69.00;;;35.00;;
70420;SDS011;57848;51.938;15.520;2024-03-02T08:53:50;69.00;;;34.67;;
70420;SDS011;57848;51.938;15.520;2024-03-02T08:56:15;70.03;;;35.00;;
70420;SDS011;57848;51.938;15.520;2024-03-02T08:58:41;66.13;;;34.30;;
70420;SDS011;57848;51.938;15.520;2024-03-02T09:01:06;69.07;;;35.95;;
70420;SDS011;57848;51.938;15.520;2024-03-02T09:03:33;70.40;;;37.50;;
70420;SDS011;57848;51.938;15.520;2024-03-02T09:06:00;69.97;;;36.00;;
70420;SDS011;57848;51.938;15.520;2024-03-02T09:08:25;67.47;;;35.03;;
70420;SDS011;57848;51.938;15.520;2024-03-02T09:10:51;66.83;;;37.10;;
70420;SDS011;57848;51.938;15.520;2024-03-02T09:13:17;66.28;;;34.53;;
70420;SDS011;57848;51.938;15.520;2024-03-02T09:15:42;68.10;;;34.30;;
70420;SDS011;57848;51.938;15.520;2024-03-02T09:18:08;65.77;;;33.83;;
70420;SDS011;57848;51.938;15.520;2024-03-02T09:20:33;68.30;;;34.80;;
70420;SDS011;57848;51.938;15.520;2024-03-02T09:22:58;61.40;;;31.30;;
70420;SDS011;57848;51.938;15.520;2024-03-02T09:25:24;56.00;;;31.70;;
70420;SDS011;57848;51.938;15.520;2024-03-02T09:27:50;62.55;;;31.13;;
70420;SDS011;57848;51.938;15.520;2024-03-02T09:30:16;59.23;;;30.67;;
70420;SDS011;57848;51.938;15.520;2024-03-02T09:32:41;64.85;;;32.38;;
70420;SDS011;57848;51.938;15.520;2024-03-02T09:35:07;64.17;;;31.73;;
70420;SDS011;57848;51.938;15.520;2024-03-02T09:37:32;61.10;;;33.13;;
70420;SDS011;57848;51.938;15.520;2024-03-02T09:39:58;60.42;;;33.05;;
70420;SDS011;57848;51.938;15.520;2024-03-02T09:42:24;58.03;;;31.03;;
70420;SDS011;57848;51.938;15.520;2024-03-02T09:44:50;56.40;;;30.55;;
70420;SDS011;57848;51.938;15.520;2024-03-02T09:47:17;54.05;;;28.38;;
70420;SDS011;57848;51.938;15.520;2024-03-02T09:49:42;50.77;;;27.90;;
70420;SDS011;57848;51.938;15.520;2024-03-02T09:52:08;54.83;;;29.83;;
70420;SDS011;57848;51.938;15.520;2024-03-02T09:54:35;57.85;;;29.83;;
70420;SDS011;57848;51.938;15.520;2024-03-02T09:57:01;53.77;;;29.10;;
70420;SDS011;57848;51.938;15.520;2024-03-02T09:59:27;52.92;;;28.45;;
70420;SDS011;57848;51.938;15.520;2024-03-02T10:01:57;52.50;;;28.58;;
70420;SDS011;57848;51.938;15.520;2024-03-02T10:04:27;56.05;;;30.10;;
70420;SDS011;57848;51.938;15.520;2024-03-02T10:09:42;57.60;;;28.53;;
70420;SDS011;57848;51.938;15.520;2024-03-02T10:12:13;52.58;;;28.52;;
70420;SDS011;57848;51.938;15.520;2024-03-02T10:14:41;47.60;;;25.35;;
70420;SDS011;57848;51.938;15.520;2024-03-02T10:17:08;52.33;;;25.05;;
70420;SDS011;57848;51.938;15.520;2024-03-02T10:19:35;48.38;;;25.40;;
70420;SDS011;57848;51.938;15.520;2024-03-02T10:22:02;50.20;;;24.87;;
70420;SDS011;57848;51.938;15.520;2024-03-02T10:24:35;48.47;;;26.02;;
70420;SDS011;57848;51.938;15.520;2024-03-02T10:29:48;47.15;;;23.63;;
70420;SDS011;57848;51.938;15.520;2024-03-02T10:32:14;47.27;;;24.03;;
70420;SDS011;57848;51.938;15.520;2024-03-02T10:34:40;44.78;;;24.00;;
70420;SDS011;57848;51.938;15.520;2024-03-02T10:37:06;45.97;;;24.30;;
70420;SDS011;57848;51.938;15.520;2024-03-02T10:39:32;43.00;;;23.13;;
70420;SDS011;57848;51.938;15.520;2024-03-02T10:42:01;44.88;;;23.73;;
70420;SDS011;57848;51.938;15.520;2024-03-02T10:44:28;42.87;;;22.57;;
70420;SDS011;57848;51.938;15.520;2024-03-02T10:46:55;40.90;;;21.95;;
70420;SDS011;57848;51.938;15.520;2024-03-02T10:49:22;42.58;;;22.65;;
70420;SDS011;57848;51.938;15.520;2024-03-02T10:51:49;47.00;;;23.35;;
70420;SDS011;57848;51.938;15.520;2024-03-02T10:54:14;42.87;;;22.57;;
70420;SDS011;57848;51.938;15.520;2024-03-02T10:56:40;41.30;;;20.23;;
70420;SDS011;57848;51.938;15.520;2024-03-02T11:01:51;38.95;;;20.92;;
70420;SDS011;57848;51.938;15.520;2024-03-02T11:04:21;35.85;;;19.25;;
70420;SDS011;57848;51.938;15.520;2024-03-02T11:06:49;37.88;;;20.50;;
70420;SDS011;57848;51.938;15.520;2024-03-02T11:09:19;38.77;;;20.80;;
70420;SDS011;57848;51.938;15.520;2024-03-02T11:11:49;34.67;;;18.92;;
70420;SDS011;57848;51.938;15.520;2024-03-02T11:14:27;33.03;;;18.23;;
70420;SDS011;57848;51.938;15.520;2024-03-02T11:16:56;34.65;;;18.40;;
70420;SDS011;57848;51.938;15.520;2024-03-02T11:19:23;33.35;;;17.20;;
70420;SDS011;57848;51.938;15.520;2024-03-02T11:21:49;32.40;;;16.50;;
70420;SDS011;57848;51.938;15.520;2024-03-02T11:24:37;33.42;;;17.95;;
70420;SDS011;57848;51.938;15.520;2024-03-02T11:27:03;34.47;;;17.98;;
70420;SDS011;57848;51.938;15.520;2024-03-02T11:32:06;33.50;;;17.48;;
70420;SDS011;57848;51.938;15.520;2024-03-02T11:34:39;33.30;;;16.50;;
70420;SDS011;57848;51.938;15.520;2024-03-02T11:37:10;34.47;;;17.20;;
70420;SDS011;57848;51.938;15.520;2024-03-02T11:39:36;32.55;;;16.98;;
70420;SDS011;57848;51.938;15.520;2024-03-02T11:42:04;30.75;;;15.60;;
70420;SDS011;57848;51.938;15.520;2024-03-02T11:44:32;30.27;;;16.65;;
70420;SDS011;57848;51.938;15.520;2024-03-02T11:47:01;31.73;;;15.23;;
70420;SDS011;57848;51.938;15.520;2024-03-02T11:52:02;32.55;;;17.25;;
70420;SDS011;57848;51.938;15.520;2024-03-02T11:54:29;31.58;;;16.98;;
70420;SDS011;57848;51.938;15.520;2024-03-02T11:56:58;27.90;;;14.45;;
70420;SDS011;57848;51.938;15.520;2024-03-02T11:59:27;28.30;;;14.53;;
70420;SDS011;57848;51.938;15.520;2024-03-02T12:01:53;27.90;;;15.57;;
70420;SDS011;57848;51.938;15.520;2024-03-02T12:04:19;31.40;;;15.23;;
70420;SDS011;57848;51.938;15.520;2024-03-02T12:06:45;30.73;;;14.25;;
70420;SDS011;57848;51.938;15.520;2024-03-02T12:09:11;26.25;;;14.90;;
70420;SDS011;57848;51.938;15.520;2024-03-02T12:11:37;25.87;;;14.27;;
70420;SDS011;57848;51.938;15.520;2024-03-02T12:14:02;27.98;;;15.50;;
70420;SDS011;57848;51.938;15.520;2024-03-02T12:16:29;27.30;;;14.93;;
70420;SDS011;57848;51.938;15.520;2024-03-02T12:18:54;23.95;;;13.98;;
70420;SDS011;57848;51.938;15.520;2024-03-02T12:21:20;22.80;;;12.27;;
70420;SDS011;57848;51.938;15.520;2024-03-02T12:23:45;23.27;;;13.60;;
70420;SDS011;57848;51.938;15.520;2024-03-02T12:26:11;25.97;;;13.00;;
70420;SDS011;57848;51.938;15.520;2024-03-02T12:28:36;26.30;;;14.98;;
70420;SDS011;57848;51.938;15.520;2024-03-02T12:31:02;24.67;;;13.17;;
70420;SDS011;57848;51.938;15.520;2024-03-02T12:33:27;27.47;;;14.60;;
70420;SDS011;57848;51.938;15.520;2024-03-02T12:35:54;27.73;;;15.35;;
70420;SDS011;57848;51.938;15.520;2024-03-02T12:38:19;28.03;;;13.93;;
70420;SDS011;57848;51.938;15.520;2024-03-02T12:40:47;24.63;;;13.32;;
70420;SDS011;57848;51.938;15.520;2024-03-02T12:43:13;24.97;;;13.77;;
70420;SDS011;57848;51.938;15.520;2024-03-02T12:45:38;26.35;;;14.48;;
70420;SDS011;57848;51.938;15.520;2024-03-02T12:48:04;25.57;;;14.17;;
70420;SDS011;57848;51.938;15.520;2024-03-02T12:50:30;24.90;;;13.40;;
70420;SDS011;57848;51.938;15.520;2024-03-02T12:52:55;26.90;;;14.80;;
70420;SDS011;57848;51.938;15.520;2024-03-02T12:55:21;26.15;;;13.63;;
70420;SDS011;57848;51.938;15.520;2024-03-02T12:57:49;25.53;;;14.60;;
70420;SDS011;57848;51.938;15.520;2024-03-02T13:00:17;28.75;;;16.50;;
70420;SDS011;57848;51.938;15.520;2024-03-02T13:02:45;27.58;;;14.35;;
70420;SDS011;57848;51.938;15.520;2024-03-02T13:05:11;30.58;;;16.02;;
70420;SDS011;57848;51.938;15.520;2024-03-02T13:07:37;29.67;;;14.50;;
70420;SDS011;57848;51.938;15.520;2024-03-02T13:10:04;24.77;;;14.15;;
70420;SDS011;57848;51.938;15.520;2024-03-02T13:12:30;28.08;;;13.80;;
70420;SDS011;57848;51.938;15.520;2024-03-02T13:14:57;24.93;;;14.00;;
70420;SDS011;57848;51.938;15.520;2024-03-02T13:17:24;26.33;;;13.90;;
70420;SDS011;57848;51.938;15.520;2024-03-02T13:22:18;24.50;;;12.77;;
70420;SDS011;57848;51.938;15.520;2024-03-02T13:24:44;26.30;;;13.13;;
70420;SDS011;57848;51.938;15.520;2024-03-02T13:27:09;23.10;;;13.23;;
70420;SDS011;57848;51.938;15.520;2024-03-02T13:29:34;23.77;;;13.43;;
70420;SDS011;57848;51.938;15.520;2024-03-02T13:32:00;30.53;;;15.80;;
70420;SDS011;57848;51.938;15.520;2024-03-02T13:34:25;32.63;;;17.70;;
70420;SDS011;57848;51.938;15.520;2024-03-02T13:36:51;35.13;;;18.20;;
70420;SDS011;57848;51.938;15.520;2024-03-02T13:39:16;33.60;;;17.67;;
70420;SDS011;57848;51.938;15.520;2024-03-02T13:41:42;31.20;;;18.93;;
70420;SDS011;57848;51.938;15.520;2024-03-02T13:44:09;37.03;;;18.88;;
70420;SDS011;57848;51.938;15.520;2024-03-02T13:46:34;35.60;;;19.90;;
70420;SDS011;57848;51.938;15.520;2024-03-02T13:49:00;35.83;;;19.60;;
70420;SDS011;57848;51.938;15.520;2024-03-02T13:51:26;36.60;;;19.70;;
70420;SDS011;57848;51.938;15.520;2024-03-02T13:53:52;36.38;;;20.10;;
70420;SDS011;57848;51.938;15.520;2024-03-02T13:56:17;38.17;;;20.30;;
70420;SDS011;57848;51.938;15.520;2024-03-02T13:58:43;36.78;;;19.70;;
70420;SDS011;57848;51.938;15.520;2024-03-02T14:01:11;34.50;;;19.13;;
70420;SDS011;57848;51.938;15.520;2024-03-02T14:03:36;34.03;;;19.33;;
70420;SDS011;57848;51.938;15.520;2024-03-02T14:06:02;37.67;;;20.23;;
70420;SDS011;57848;51.938;15.520;2024-03-02T14:08:28;38.70;;;21.15;;
70420;SDS011;57848;51.938;15.520;2024-03-02T14:10:53;36.47;;;19.20;;
70420;SDS011;57848;51.938;15.520;2024-03-02T14:13:20;38.15;;;20.00;;
70420;SDS011;57848;51.938;15.520;2024-03-02T14:15:45;36.53;;;19.97;;
70420;SDS011;57848;51.938;15.520;2024-03-02T14:18:11;35.33;;;18.90;;
70420;SDS011;57848;51.938;15.520;2024-03-02T14:20:36;36.40;;;20.23;;
70420;SDS011;57848;51.938;15.520;2024-03-02T14:23:03;34.78;;;19.05;;